sensor_id;sensor_type;location;lat;lon;timestamp;temperature;humidity
6118;DHT22;3089;48.202;11.510;2022-11-15T00:01:09;5.50;99.90
6118;DHT22;3089;48.202;11.510;2022-11-15T00:03:40;5.50;99.90
6118;DHT22;3089;48.202;11.510;2022-11-15T00:06:08;5.50;99.90
6118;DHT22;3089;48.202;11.510;2022-11-15T00:08:39;5.40;99.90
6118;DHT22;3089;48.202;11.510;2022-11-15T00:11:11;5.50;99.90
6118;DHT22;3089;48.202;11.510;2022-11-15T00:13:39;5.50;99.90
6118;DHT22;3089;48.202;11.510;2022-11-15T00:16:09;5.40;99.90
6118;DHT22;3089;48.202;11.510;2022-11-15T00:18:37;5.50;99.90
6118;DHT22;3089;48.202;11.510;2022-11-15T00:21:07;5.40;99.90
6118;DHT22;3089;48.202;11.510;2022-11-15T00:23:37;5.40;99.90
6118;DHT22;3089;48.202;11.510;2022-11-15T00:26:06;5.30;99.90
6118;DHT22;3089;48.202;11.510;2022-11-15T00:28:35;5.30;99.90
6118;DHT22;3089;48.202;11.510;2022-11-15T00:31:04;5.30;99.90
6118;DHT22;3089;48.202;11.510;2022-11-15T00:33:33;5.30;99.90
6118;DHT22;3089;48.202;11.510;2022-11-15T00:36:01;5.30;99.90
6118;DHT22;3089;48.202;11.510;2022-11-15T00:38:31;5.20;99.90
6118;DHT22;3089;48.202;11.510;2022-11-15T00:41:00;5.30;99.90
6118;DHT22;3089;48.202;11.510;2022-11-15T00:43:36;5.20;99.90
6118;DHT22;3089;48.202;11.510;2022-11-15T00:46:06;5.20;99.90
6118;DHT22;3089;48.202;11.510;2022-11-15T00:48:35;5.20;99.90
6118;DHT22;3089;48.202;11.510;2022-11-15T00:51:03;5.20;99.90
6118;DHT22;3089;48.202;11.510;2022-11-15T00:53:34;5.20;99.90
6118;DHT22;3089;48.202;11.510;2022-11-15T00:56:02;5.20;99.90
6118;DHT22;3089;48.202;11.510;2022-11-15T00:58:30;5.10;99.90
6118;DHT22;3089;48.202;11.510;2022-11-15T01:01:07;5.10;99.90
6118;DHT22;3089;48.202;11.510;2022-11-15T01:03:35;5.10;99.90
6118;DHT22;3089;48.202;11.510;2022-11-15T01:06:04;5.10;99.90
6118;DHT22;3089;48.202;11.510;2022-11-15T01:08:32;5.10;99.90
6118;DHT22;3089;48.202;11.510;2022-11-15T01:11:01;5.10;99.90
6118;DHT22;3089;48.202;11.510;2022-11-15T01:13:31;5.10;99.90
6118;DHT22;3089;48.202;11.510;2022-11-15T01:15:59;5.00;99.90
6118;DHT22;3089;48.202;11.510;2022-11-15T01:18:34;5.10;99.90
6118;DHT22;3089;48.202;11.510;2022-11-15T01:21:05;5.00;99.90
6118;DHT22;3089;48.202;11.510;2022-11-15T01:23:33;5.00;99.90
6118;DHT22;3089;48.202;11.510;2022-11-15T01:26:02;5.00;99.90
6118;DHT22;3089;48.202;11.510;2022-11-15T01:28:31;5.00;99.90
6118;DHT22;3089;48.202;11.510;2022-11-15T01:30:59;4.90;99.90
6118;DHT22;3089;48.202;11.510;2022-11-15T01:33:28;5.00;99.90
6118;DHT22;3089;48.202;11.510;2022-11-15T01:35:58;5.00;99.90
6118;DHT22;3089;48.202;11.510;2022-11-15T01:38:26;5.10;99.90
6118;DHT22;3089;48.202;11.510;2022-11-15T01:40:53;5.00;99.90
6118;DHT22;3089;48.202;11.510;2022-11-15T01:43:23;4.90;99.90
6118;DHT22;3089;48.202;11.510;2022-11-15T01:45:55;4.80;99.90
6118;DHT22;3089;48.202;11.510;2022-11-15T01:48:27;4.80;99.90
6118;DHT22;3089;48.202;11.510;2022-11-15T01:50:58;4.90;99.90
6118;DHT22;3089;48.202;11.510;2022-11-15T01:53:27;4.90;99.90
6118;DHT22;3089;48.202;11.510;2022-11-15T01:55:56;4.90;99.90
6118;DHT22;3089;48.202;11.510;2022-11-15T01:58:25;5.00;99.90
6118;DHT22;3089;48.202;11.510;2022-11-15T02:00:53;4.80;99.90
6118;DHT22;3089;48.202;11.510;2022-11-15T02:03:23;4.80;99.90
6118;DHT22;3089;48.202;11.510;2022-11-15T02:05:53;4.70;99.90
6118;DHT22;3089;48.202;11.510;2022-11-15T02:08:23;4.70;99.90
6118;DHT22;3089;48.202;11.510;2022-11-15T02:10:50;4.70;99.90
6118;DHT22;3089;48.202;11.510;2022-11-15T02:13:18;4.80;99.90
6118;DHT22;3089;48.202;11.510;2022-11-15T02:15:52;4.80;99.90
6118;DHT22;3089;48.202;11.510;2022-11-15T02:18:33;4.70;99.90
6118;DHT22;3089;48.202;11.510;2022-11-15T02:21:12;4.70;99.90
6118;DHT22;3089;48.202;11.510;2022-11-15T02:24:30;4.60;99.90
6118;DHT22;3089;48.202;11.510;2022-11-15T02:30:23;4.60;99.90
6118;DHT22;3089;48.202;11.510;2022-11-15T02:32:57;4.70;99.90
6118;DHT22;3089;48.202;11.510;2022-11-15T02:35:31;4.60;99.90
6118;DHT22;3089;48.202;11.510;2022-11-15T02:38:06;4.60;99.90
6118;DHT22;3089;48.202;11.510;2022-11-15T02:40:41;4.50;99.90
6118;DHT22;3089;48.202;11.510;2022-11-15T02:43:17;4.50;99.90
6118;DHT22;3089;48.202;11.510;2022-11-15T02:46:10;4.50;99.90
6118;DHT22;3089;48.202;11.510;2022-11-15T02:48:41;4.50;99.90
6118;DHT22;3089;48.202;11.510;2022-11-15T02:51:11;4.50;99.90
6118;DHT22;3089;48.202;11.510;2022-11-15T02:53:43;4.40;99.90
6118;DHT22;3089;48.202;11.510;2022-11-15T02:56:11;4.40;99.90
6118;DHT22;3089;48.202;11.510;2022-11-15T02:59:00;4.40;99.90
6118;DHT22;3089;48.202;11.510;2022-11-15T03:01:46;4.40;99.90
6118;DHT22;3089;48.202;11.510;2022-11-15T03:04:24;4.40;99.90
6118;DHT22;3089;48.202;11.510;2022-11-15T03:07:00;4.40;99.90
6118;DHT22;3089;48.202;11.510;2022-11-15T03:09:34;4.40;99.90
6118;DHT22;3089;48.202;11.510;2022-11-15T03:12:07;4.40;99.90
6118;DHT22;3089;48.202;11.510;2022-11-15T03:14:44;4.30;99.90
6118;DHT22;3089;48.202;11.510;2022-11-15T03:17:21;4.30;99.90
6118;DHT22;3089;48.202;11.510;2022-11-15T03:19:54;4.30;99.90
6118;DHT22;3089;48.202;11.510;2022-11-15T03:22:24;4.40;99.90
6118;DHT22;3089;48.202;11.510;2022-11-15T03:24:57;4.40;99.90
6118;DHT22;3089;48.202;11.510;2022-11-15T03:27:30;4.30;99.90
6118;DHT22;3089;48.202;11.510;2022-11-15T03:30:02;4.40;99.90
6118;DHT22;3089;48.202;11.510;2022-11-15T03:32:35;4.30;99.90
6118;DHT22;3089;48.202;11.510;2022-11-15T03:35:07;4.30;99.90
6118;DHT22;3089;48.202;11.510;2022-11-15T03:37:41;4.30;99.90
6118;DHT22;3089;48.202;11.510;2022-11-15T03:40:11;4.40;99.90
6118;DHT22;3089;48.202;11.510;2022-11-15T03:42:46;4.30;99.90
6118;DHT22;3089;48.202;11.510;2022-11-15T03:45:19;4.30;99.90
6118;DHT22;3089;48.202;11.510;2022-11-15T03:47:53;4.20;99.90
6118;DHT22;3089;48.202;11.510;2022-11-15T03:50:24;4.10;99.90
6118;DHT22;3089;48.202;11.510;2022-11-15T03:52:54;4.10;99.90
6118;DHT22;3089;48.202;11.510;2022-11-15T03:55:23;4.20;99.90
6118;DHT22;3089;48.202;11.510;2022-11-15T03:57:53;4.10;99.90
6118;DHT22;3089;48.202;11.510;2022-11-15T04:00:22;4.10;99.90
6118;DHT22;3089;48.202;11.510;2022-11-15T04:02:51;4.10;99.90
6118;DHT22;3089;48.202;11.510;2022-11-15T04:05:19;4.10;99.90
6118;DHT22;3089;48.202;11.510;2022-11-15T04:07:47;4.00;99.90
6118;DHT22;3089;48.202;11.510;2022-11-15T04:10:15;3.90;99.90
6118;DHT22;3089;48.202;11.510;2022-11-15T04:12:45;4.00;99.90
6118;DHT22;3089;48.202;11.510;2022-11-15T04:15:16;4.00;99.90
6118;DHT22;3089;48.202;11.510;2022-11-15T04:17:45;4.00;99.90
6118;DHT22;3089;48.202;11.510;2022-11-15T04:20:16;4.00;99.90
6118;DHT22;3089;48.202;11.510;2022-11-15T04:23:05;4.00;99.90
6118;DHT22;3089;48.202;11.510;2022-11-15T04:25:52;4.00;99.90
6118;DHT22;3089;48.202;11.510;2022-11-15T04:28:21;4.00;99.90
6118;DHT22;3089;48.202;11.510;2022-11-15T04:30:49;4.00;99.90
6118;DHT22;3089;48.202;11.510;2022-11-15T04:33:17;4.00;99.90
6118;DHT22;3089;48.202;11.510;2022-11-15T04:35:47;4.00;99.90
6118;DHT22;3089;48.202;11.510;2022-11-15T04:38:35;4.00;99.90
6118;DHT22;3089;48.202;11.510;2022-11-15T04:41:02;3.90;99.90
6118;DHT22;3089;48.202;11.510;2022-11-15T04:43:30;3.90;99.90
6118;DHT22;3089;48.202;11.510;2022-11-15T04:45:59;4.00;99.90
6118;DHT22;3089;48.202;11.510;2022-11-15T04:48:26;4.00;99.90
6118;DHT22;3089;48.202;11.510;2022-11-15T04:50:56;3.90;99.90
6118;DHT22;3089;48.202;11.510;2022-11-15T04:53:24;3.90;99.90
6118;DHT22;3089;48.202;11.510;2022-11-15T04:55:51;3.80;99.90
6118;DHT22;3089;48.202;11.510;2022-11-15T04:58:19;3.80;99.90
6118;DHT22;3089;48.202;11.510;2022-11-15T05:00:47;3.80;99.90
6118;DHT22;3089;48.202;11.510;2022-11-15T05:03:15;3.80;99.90
6118;DHT22;3089;48.202;11.510;2022-11-15T05:06:02;3.80;99.90
6118;DHT22;3089;48.202;11.510;2022-11-15T05:08:30;3.70;99.90
6118;DHT22;3089;48.202;11.510;2022-11-15T05:10:58;3.70;99.90
6118;DHT22;3089;48.202;11.510;2022-11-15T05:13:26;3.70;99.90
6118;DHT22;3089;48.202;11.510;2022-11-15T05:15:54;3.70;99.90
6118;DHT22;3089;48.202;11.510;2022-11-15T05:18:22;3.70;99.90
6118;DHT22;3089;48.202;11.510;2022-11-15T05:20:49;3.70;99.90
6118;DHT22;3089;48.202;11.510;2022-11-15T05:23:19;3.60;99.90
6118;DHT22;3089;48.202;11.510;2022-11-15T05:25:46;3.70;99.90
6118;DHT22;3089;48.202;11.510;2022-11-15T05:28:14;3.60;99.90
6118;DHT22;3089;48.202;11.510;2022-11-15T05:30:42;3.60;99.90
6118;DHT22;3089;48.202;11.510;2022-11-15T05:33:10;3.60;99.90
6118;DHT22;3089;48.202;11.510;2022-11-15T05:35:42;3.60;99.90
6118;DHT22;3089;48.202;11.510;2022-11-15T05:38:13;3.60;99.90
6118;DHT22;3089;48.202;11.510;2022-11-15T05:40:42;3.60;99.90
6118;DHT22;3089;48.202;11.510;2022-11-15T05:43:10;3.70;99.90
6118;DHT22;3089;48.202;11.510;2022-11-15T05:45:38;3.70;99.90
6118;DHT22;3089;48.202;11.510;2022-11-15T05:48:07;3.70;99.90
6118;DHT22;3089;48.202;11.510;2022-11-15T05:50:38;3.70;99.90
6118;DHT22;3089;48.202;11.510;2022-11-15T05:53:06;3.50;99.90
6118;DHT22;3089;48.202;11.510;2022-11-15T05:55:35;3.40;99.90
6118;DHT22;3089;48.202;11.510;2022-11-15T05:58:04;3.40;99.90
6118;DHT22;3089;48.202;11.510;2022-11-15T06:00:32;3.40;99.90
6118;DHT22;3089;48.202;11.510;2022-11-15T06:03:00;3.30;99.90
6118;DHT22;3089;48.202;11.510;2022-11-15T06:05:27;3.30;99.90
6118;DHT22;3089;48.202;11.510;2022-11-15T06:07:57;3.40;99.90
6118;DHT22;3089;48.202;11.510;2022-11-15T06:10:25;3.40;99.90
6118;DHT22;3089;48.202;11.510;2022-11-15T06:12:57;3.40;99.90
6118;DHT22;3089;48.202;11.510;2022-11-15T06:15:26;3.50;99.90
6118;DHT22;3089;48.202;11.510;2022-11-15T06:17:56;3.60;99.90
6118;DHT22;3089;48.202;11.510;2022-11-15T06:20:25;3.50;99.90
6118;DHT22;3089;48.202;11.510;2022-11-15T06:22:56;3.40;99.90
6118;DHT22;3089;48.202;11.510;2022-11-15T06:25:25;3.30;99.90
6118;DHT22;3089;48.202;11.510;2022-11-15T06:27:54;2.90;99.90
6118;DHT22;3089;48.202;11.510;2022-11-15T06:30:24;2.90;99.90
6118;DHT22;3089;48.202;11.510;2022-11-15T06:32:58;3.10;99.90
6118;DHT22;3089;48.202;11.510;2022-11-15T06:35:27;3.10;99.90
6118;DHT22;3089;48.202;11.510;2022-11-15T06:37:55;3.20;99.90
6118;DHT22;3089;48.202;11.510;2022-11-15T06:40:23;3.20;99.90
6118;DHT22;3089;48.202;11.510;2022-11-15T06:42:51;3.20;99.90
6118;DHT22;3089;48.202;11.510;2022-11-15T06:45:24;3.20;99.90
6118;DHT22;3089;48.202;11.510;2022-11-15T06:47:53;3.20;99.90
6118;DHT22;3089;48.202;11.510;2022-11-15T06:50:21;3.20;99.90
6118;DHT22;3089;48.202;11.510;2022-11-15T06:52:49;3.20;99.90
6118;DHT22;3089;48.202;11.510;2022-11-15T06:55:17;3.20;99.90
6118;DHT22;3089;48.202;11.510;2022-11-15T06:57:49;3.20;99.90
6118;DHT22;3089;48.202;11.510;2022-11-15T07:00:19;3.20;99.90
6118;DHT22;3089;48.202;11.510;2022-11-15T07:02:47;3.10;99.90
6118;DHT22;3089;48.202;11.510;2022-11-15T07:05:16;3.20;99.90
6118;DHT22;3089;48.202;11.510;2022-11-15T07:07:51;3.20;99.90
6118;DHT22;3089;48.202;11.510;2022-11-15T07:10:19;3.30;99.90
6118;DHT22;3089;48.202;11.510;2022-11-15T07:12:47;3.30;99.90
6118;DHT22;3089;48.202;11.510;2022-11-15T07:15:16;3.30;99.90
6118;DHT22;3089;48.202;11.510;2022-11-15T07:17:44;3.40;99.90
6118;DHT22;3089;48.202;11.510;2022-11-15T07:20:12;3.40;99.90
6118;DHT22;3089;48.202;11.510;2022-11-15T07:22:42;3.30;99.90
6118;DHT22;3089;48.202;11.510;2022-11-15T07:25:11;3.40;99.90
6118;DHT22;3089;48.202;11.510;2022-11-15T07:27:42;3.40;99.90
6118;DHT22;3089;48.202;11.510;2022-11-15T07:30:17;3.40;99.90
6118;DHT22;3089;48.202;11.510;2022-11-15T07:32:44;3.90;99.90
6118;DHT22;3089;48.202;11.510;2022-11-15T07:35:13;3.90;99.90
6118;DHT22;3089;48.202;11.510;2022-11-15T07:37:42;3.90;99.90
6118;DHT22;3089;48.202;11.510;2022-11-15T07:40:11;3.90;99.90
6118;DHT22;3089;48.202;11.510;2022-11-15T07:42:39;3.80;99.90
6118;DHT22;3089;48.202;11.510;2022-11-15T07:45:23;4.40;99.90
6118;DHT22;3089;48.202;11.510;2022-11-15T07:47:53;4.30;99.90
6118;DHT22;3089;48.202;11.510;2022-11-15T07:50:23;5.00;99.90
6118;DHT22;3089;48.202;11.510;2022-11-15T07:52:55;5.90;99.90
6118;DHT22;3089;48.202;11.510;2022-11-15T07:55:24;5.50;99.90
6118;DHT22;3089;48.202;11.510;2022-11-15T07:57:52;4.80;99.90
6118;DHT22;3089;48.202;11.510;2022-11-15T08:00:20;4.30;99.90
6118;DHT22;3089;48.202;11.510;2022-11-15T08:02:48;3.80;99.90
6118;DHT22;3089;48.202;11.510;2022-11-15T08:05:16;3.70;99.90
6118;DHT22;3089;48.202;11.510;2022-11-15T08:07:44;3.60;99.90
6118;DHT22;3089;48.202;11.510;2022-11-15T08:10:13;3.70;99.90
6118;DHT22;3089;48.202;11.510;2022-11-15T08:12:43;3.60;99.90
6118;DHT22;3089;48.202;11.510;2022-11-15T08:15:11;3.80;99.90
6118;DHT22;3089;48.202;11.510;2022-11-15T08:17:39;4.50;99.90
6118;DHT22;3089;48.202;11.510;2022-11-15T08:20:08;5.40;99.90
6118;DHT22;3089;48.202;11.510;2022-11-15T08:22:47;5.40;99.90
6118;DHT22;3089;48.202;11.510;2022-11-15T08:25:16;6.10;99.90
6118;DHT22;3089;48.202;11.510;2022-11-15T08:27:44;6.40;99.90
6118;DHT22;3089;48.202;11.510;2022-11-15T08:30:12;6.30;99.90
6118;DHT22;3089;48.202;11.510;2022-11-15T08:32:42;5.80;99.90
6118;DHT22;3089;48.202;11.510;2022-11-15T08:35:10;5.60;99.90
6118;DHT22;3089;48.202;11.510;2022-11-15T08:37:38;5.70;99.90
6118;DHT22;3089;48.202;11.510;2022-11-15T08:40:07;6.00;99.90
6118;DHT22;3089;48.202;11.510;2022-11-15T08:42:37;5.70;99.90
6118;DHT22;3089;48.202;11.510;2022-11-15T08:45:06;5.70;99.90
6118;DHT22;3089;48.202;11.510;2022-11-15T08:47:34;5.20;99.90
6118;DHT22;3089;48.202;11.510;2022-11-15T08:50:02;5.00;99.90
6118;DHT22;3089;48.202;11.510;2022-11-15T08:52:30;4.90;99.90
6118;DHT22;3089;48.202;11.510;2022-11-15T08:54:58;5.00;99.90
6118;DHT22;3089;48.202;11.510;2022-11-15T08:57:28;5.10;99.90
6118;DHT22;3089;48.202;11.510;2022-11-15T08:59:58;5.40;99.90
6118;DHT22;3089;48.202;11.510;2022-11-15T09:02:26;5.70;99.90
6118;DHT22;3089;48.202;11.510;2022-11-15T09:04:54;5.60;99.90
6118;DHT22;3089;48.202;11.510;2022-11-15T09:07:22;5.20;99.90
6118;DHT22;3089;48.202;11.510;2022-11-15T09:09:51;5.00;99.90
6118;DHT22;3089;48.202;11.510;2022-11-15T09:12:19;5.00;99.90
6118;DHT22;3089;48.202;11.510;2022-11-15T09:14:47;5.00;99.90
6118;DHT22;3089;48.202;11.510;2022-11-15T09:17:16;5.10;99.90
6118;DHT22;3089;48.202;11.510;2022-11-15T09:19:50;5.20;99.90
6118;DHT22;3089;48.202;11.510;2022-11-15T09:22:18;5.30;99.90
6118;DHT22;3089;48.202;11.510;2022-11-15T09:24:46;5.50;99.90
6118;DHT22;3089;48.202;11.510;2022-11-15T09:27:14;5.60;99.90
6118;DHT22;3089;48.202;11.510;2022-11-15T09:29:41;5.60;99.90
6118;DHT22;3089;48.202;11.510;2022-11-15T09:32:09;5.70;99.90
6118;DHT22;3089;48.202;11.510;2022-11-15T09:34:38;5.90;99.90
6118;DHT22;3089;48.202;11.510;2022-11-15T09:37:06;5.90;99.90
6118;DHT22;3089;48.202;11.510;2022-11-15T09:39:34;6.00;99.90
6118;DHT22;3089;48.202;11.510;2022-11-15T09:42:20;6.10;99.90
6118;DHT22;3089;48.202;11.510;2022-11-15T09:45:00;6.10;99.90
6118;DHT22;3089;48.202;11.510;2022-11-15T09:47:40;6.30;99.90
6118;DHT22;3089;48.202;11.510;2022-11-15T09:50:16;6.40;99.90
6118;DHT22;3089;48.202;11.510;2022-11-15T09:52:46;6.70;99.90
6118;DHT22;3089;48.202;11.510;2022-11-15T09:55:14;7.00;99.90
6118;DHT22;3089;48.202;11.510;2022-11-15T09:57:53;7.00;99.90
6118;DHT22;3089;48.202;11.510;2022-11-15T10:00:31;7.40;99.90
6118;DHT22;3089;48.202;11.510;2022-11-15T10:03:19;7.80;99.90
6118;DHT22;3089;48.202;11.510;2022-11-15T10:05:53;7.70;99.90
6118;DHT22;3089;48.202;11.510;2022-11-15T10:08:40;7.70;99.90
6118;DHT22;3089;48.202;11.510;2022-11-15T10:11:16;8.10;99.90
6118;DHT22;3089;48.202;11.510;2022-11-15T10:14:10;8.10;99.90
6118;DHT22;3089;48.202;11.510;2022-11-15T10:19:51;8.10;99.90
6118;DHT22;3089;48.202;11.510;2022-11-15T10:22:29;8.10;99.90
6118;DHT22;3089;48.202;11.510;2022-11-15T10:25:10;8.20;99.90
6118;DHT22;3089;48.202;11.510;2022-11-15T10:27:40;8.30;99.90
6118;DHT22;3089;48.202;11.510;2022-11-15T10:30:11;8.20;99.90
6118;DHT22;3089;48.202;11.510;2022-11-15T10:32:42;8.30;99.90
6118;DHT22;3089;48.202;11.510;2022-11-15T10:35:25;8.40;99.90
6118;DHT22;3089;48.202;11.510;2022-11-15T10:38:04;9.10;99.90
6118;DHT22;3089;48.202;11.510;2022-11-15T10:40:33;9.10;99.90
6118;DHT22;3089;48.202;11.510;2022-11-15T10:43:12;8.90;99.90
6118;DHT22;3089;48.202;11.510;2022-11-15T10:45:40;9.40;99.90
6118;DHT22;3089;48.202;11.510;2022-11-15T10:48:26;9.30;99.90
6118;DHT22;3089;48.202;11.510;2022-11-15T10:50:55;9.10;99.90
6118;DHT22;3089;48.202;11.510;2022-11-15T10:53:31;9.50;99.90
6118;DHT22;3089;48.202;11.510;2022-11-15T10:56:06;9.90;99.90
6118;DHT22;3089;48.202;11.510;2022-11-15T10:58:37;9.90;99.90
6118;DHT22;3089;48.202;11.510;2022-11-15T11:01:11;9.70;99.90
6118;DHT22;3089;48.202;11.510;2022-11-15T11:03:41;10.20;99.90
6118;DHT22;3089;48.202;11.510;2022-11-15T11:06:12;9.90;99.90
6118;DHT22;3089;48.202;11.510;2022-11-15T11:08:54;10.00;99.90
6118;DHT22;3089;48.202;11.510;2022-11-15T11:11:22;10.40;99.90
6118;DHT22;3089;48.202;11.510;2022-11-15T11:13:50;9.90;99.90
6118;DHT22;3089;48.202;11.510;2022-11-15T11:16:37;9.80;99.90
6118;DHT22;3089;48.202;11.510;2022-11-15T11:19:18;9.90;99.90
6118;DHT22;3089;48.202;11.510;2022-11-15T11:21:54;9.90;99.90
6118;DHT22;3089;48.202;11.510;2022-11-15T11:24:34;9.80;99.90
6118;DHT22;3089;48.202;11.510;2022-11-15T11:27:13;9.80;99.90
6118;DHT22;3089;48.202;11.510;2022-11-15T11:29:58;9.80;99.90
6118;DHT22;3089;48.202;11.510;2022-11-15T11:32:39;10.60;99.90
6118;DHT22;3089;48.202;11.510;2022-11-15T11:35:12;10.50;99.90
6118;DHT22;3089;48.202;11.510;2022-11-15T11:37:56;10.50;99.90
6118;DHT22;3089;48.202;11.510;2022-11-15T11:40:32;10.80;99.90
6118;DHT22;3089;48.202;11.510;2022-11-15T11:43:10;10.60;99.90
6118;DHT22;3089;48.202;11.510;2022-11-15T11:46:08;10.90;99.90
6118;DHT22;3089;48.202;11.510;2022-11-15T11:48:41;10.70;99.90
6118;DHT22;3089;48.202;11.510;2022-11-15T11:51:15;10.70;99.90
6118;DHT22;3089;48.202;11.510;2022-11-15T11:53:49;10.70;99.90
6118;DHT22;3089;48.202;11.510;2022-11-15T11:56:26;10.90;99.90
6118;DHT22;3089;48.202;11.510;2022-11-15T11:59:00;11.00;99.90
6118;DHT22;3089;48.202;11.510;2022-11-15T12:01:33;11.10;99.90
6118;DHT22;3089;48.202;11.510;2022-11-15T12:04:05;10.90;99.90
6118;DHT22;3089;48.202;11.510;2022-11-15T12:06:41;10.70;99.90
6118;DHT22;3089;48.202;11.510;2022-11-15T12:09:15;10.70;99.90
6118;DHT22;3089;48.202;11.510;2022-11-15T12:11:52;10.60;99.90
6118;DHT22;3089;48.202;11.510;2022-11-15T12:14:29;10.70;99.90
6118;DHT22;3089;48.202;11.510;2022-11-15T12:16:59;10.80;99.90
6118;DHT22;3089;48.202;11.510;2022-11-15T12:19:28;10.90;99.90
6118;DHT22;3089;48.202;11.510;2022-11-15T12:22:00;10.90;99.90
6118;DHT22;3089;48.202;11.510;2022-11-15T12:24:33;10.90;99.90
6118;DHT22;3089;48.202;11.510;2022-11-15T12:27:08;10.80;99.90
6118;DHT22;3089;48.202;11.510;2022-11-15T12:29:41;10.90;99.90
6118;DHT22;3089;48.202;11.510;2022-11-15T12:32:24;11.00;99.90
6118;DHT22;3089;48.202;11.510;2022-11-15T12:34:53;10.80;99.90
6118;DHT22;3089;48.202;11.510;2022-11-15T12:37:50;11.00;99.90
6118;DHT22;3089;48.202;11.510;2022-11-15T12:40:26;10.90;99.90
6118;DHT22;3089;48.202;11.510;2022-11-15T12:46:19;11.00;99.90
6118;DHT22;3089;48.202;11.510;2022-11-15T12:48:53;10.90;99.90
6118;DHT22;3089;48.202;11.510;2022-11-15T12:51:23;11.00;99.90
6118;DHT22;3089;48.202;11.510;2022-11-15T12:57:40;11.20;99.90
6118;DHT22;3089;48.202;11.510;2022-11-15T13:00:38;11.30;99.90
6118;DHT22;3089;48.202;11.510;2022-11-15T13:03:17;11.60;99.90
6118;DHT22;3089;48.202;11.510;2022-11-15T13:06:01;11.60;99.90
6118;DHT22;3089;48.202;11.510;2022-11-15T13:08:40;11.40;99.90
6118;DHT22;3089;48.202;11.510;2022-11-15T13:11:48;11.60;99.90
6118;DHT22;3089;48.202;11.510;2022-11-15T13:14:38;11.40;99.90
6118;DHT22;3089;48.202;11.510;2022-11-15T13:17:30;11.40;99.90
6118;DHT22;3089;48.202;11.510;2022-11-15T13:20:20;11.30;99.90
6118;DHT22;3089;48.202;11.510;2022-11-15T13:22:50;11.30;99.90
6118;DHT22;3089;48.202;11.510;2022-11-15T13:25:21;11.20;99.90
6118;DHT22;3089;48.202;11.510;2022-11-15T13:27:51;11.30;99.90
6118;DHT22;3089;48.202;11.510;2022-11-15T13:30:23;11.30;99.90
6118;DHT22;3089;48.202;11.510;2022-11-15T13:32:53;11.40;99.90
6118;DHT22;3089;48.202;11.510;2022-11-15T13:35:23;11.50;99.90
6118;DHT22;3089;48.202;11.510;2022-11-15T13:37:52;11.40;99.90
6118;DHT22;3089;48.202;11.510;2022-11-15T13:40:23;11.40;99.90
6118;DHT22;3089;48.202;11.510;2022-11-15T13:42:55;11.30;99.90
6118;DHT22;3089;48.202;11.510;2022-11-15T13:45:23;11.30;99.90
6118;DHT22;3089;48.202;11.510;2022-11-15T13:47:54;11.20;99.90
6118;DHT22;3089;48.202;11.510;2022-11-15T13:50:26;11.20;99.90
6118;DHT22;3089;48.202;11.510;2022-11-15T13:52:58;11.10;99.90
6118;DHT22;3089;48.202;11.510;2022-11-15T13:55:27;11.10;99.90
6118;DHT22;3089;48.202;11.510;2022-11-15T13:57:58;11.10;99.90
6118;DHT22;3089;48.202;11.510;2022-11-15T14:00:35;11.10;99.90
6118;DHT22;3089;48.202;11.510;2022-11-15T14:03:15;11.10;99.90
6118;DHT22;3089;48.202;11.510;2022-11-15T14:06:04;11.20;99.90
6118;DHT22;3089;48.202;11.510;2022-11-15T14:08:34;11.10;99.90
6118;DHT22;3089;48.202;11.510;2022-11-15T14:11:12;11.10;99.90
6118;DHT22;3089;48.202;11.510;2022-11-15T14:13:41;11.10;99.90
6118;DHT22;3089;48.202;11.510;2022-11-15T14:16:14;11.10;99.90
6118;DHT22;3089;48.202;11.510;2022-11-15T14:18:46;10.90;99.90
6118;DHT22;3089;48.202;11.510;2022-11-15T14:21:15;11.00;99.90
6118;DHT22;3089;48.202;11.510;2022-11-15T14:23:43;11.00;99.90
6118;DHT22;3089;48.202;11.510;2022-11-15T14:26:26;11.00;99.90
6118;DHT22;3089;48.202;11.510;2022-11-15T14:28:55;11.00;99.90
6118;DHT22;3089;48.202;11.510;2022-11-15T14:31:23;10.90;99.90
6118;DHT22;3089;48.202;11.510;2022-11-15T14:33:52;10.80;99.90
6118;DHT22;3089;48.202;11.510;2022-11-15T14:36:21;10.70;99.90
6118;DHT22;3089;48.202;11.510;2022-11-15T14:38:48;10.60;99.90
6118;DHT22;3089;48.202;11.510;2022-11-15T14:41:22;10.60;99.90
6118;DHT22;3089;48.202;11.510;2022-11-15T14:43:52;10.50;99.90
6118;DHT22;3089;48.202;11.510;2022-11-15T14:46:20;10.50;99.90
6118;DHT22;3089;48.202;11.510;2022-11-15T14:48:48;10.50;99.90
6118;DHT22;3089;48.202;11.510;2022-11-15T14:51:18;10.40;99.90
6118;DHT22;3089;48.202;11.510;2022-11-15T14:53:46;10.40;99.90
6118;DHT22;3089;48.202;11.510;2022-11-15T14:56:15;10.30;99.90
6118;DHT22;3089;48.202;11.510;2022-11-15T14:58:46;10.30;99.90
6118;DHT22;3089;48.202;11.510;2022-11-15T15:01:24;10.20;99.90
6118;DHT22;3089;48.202;11.510;2022-11-15T15:03:52;10.20;99.90
6118;DHT22;3089;48.202;11.510;2022-11-15T15:06:23;10.10;99.90
6118;DHT22;3089;48.202;11.510;2022-11-15T15:08:51;10.10;99.90
6118;DHT22;3089;48.202;11.510;2022-11-15T15:11:21;10.10;99.90
6118;DHT22;3089;48.202;11.510;2022-11-15T15:13:50;10.00;99.90
6118;DHT22;3089;48.202;11.510;2022-11-15T15:16:18;10.00;99.90
6118;DHT22;3089;48.202;11.510;2022-11-15T15:18:46;9.90;99.90
6118;DHT22;3089;48.202;11.510;2022-11-15T15:21:20;9.80;99.90
6118;DHT22;3089;48.202;11.510;2022-11-15T15:23:50;9.70;99.90
6118;DHT22;3089;48.202;11.510;2022-11-15T15:26:18;9.70;99.90
6118;DHT22;3089;48.202;11.510;2022-11-15T15:28:46;9.60;99.90
6118;DHT22;3089;48.202;11.510;2022-11-15T15:31:15;9.60;99.90
6118;DHT22;3089;48.202;11.510;2022-11-15T15:33:42;9.50;99.90
6118;DHT22;3089;48.202;11.510;2022-11-15T15:36:11;9.40;99.90
6118;DHT22;3089;48.202;11.510;2022-11-15T15:38:39;9.40;99.90
6118;DHT22;3089;48.202;11.510;2022-11-15T15:41:11;9.40;99.90
6118;DHT22;3089;48.202;11.510;2022-11-15T15:43:39;9.30;99.90
6118;DHT22;3089;48.202;11.510;2022-11-15T15:46:09;9.30;99.90
6118;DHT22;3089;48.202;11.510;2022-11-15T15:48:37;9.20;99.90
6118;DHT22;3089;48.202;11.510;2022-11-15T15:51:06;9.10;99.90
6118;DHT22;3089;48.202;11.510;2022-11-15T15:53:44;9.10;99.90
6118;DHT22;3089;48.202;11.510;2022-11-15T15:56:13;9.10;99.90
6118;DHT22;3089;48.202;11.510;2022-11-15T15:58:41;9.00;99.90
6118;DHT22;3089;48.202;11.510;2022-11-15T16:01:09;9.00;99.90
6118;DHT22;3089;48.202;11.510;2022-11-15T16:03:37;9.00;99.90
6118;DHT22;3089;48.202;11.510;2022-11-15T16:08:47;8.80;99.90
6118;DHT22;3089;48.202;11.510;2022-11-15T16:11:36;8.80;99.90
6118;DHT22;3089;48.202;11.510;2022-11-15T16:14:04;8.80;99.90
6118;DHT22;3089;48.202;11.510;2022-11-15T16:16:32;8.80;99.90
6118;DHT22;3089;48.202;11.510;2022-11-15T16:19:00;8.80;99.90
6118;DHT22;3089;48.202;11.510;2022-11-15T16:21:28;8.70;99.90
6118;DHT22;3089;48.202;11.510;2022-11-15T16:23:56;8.50;99.90
6118;DHT22;3089;48.202;11.510;2022-11-15T16:26:26;8.50;99.90
6118;DHT22;3089;48.202;11.510;2022-11-15T16:28:56;8.60;99.90
6118;DHT22;3089;48.202;11.510;2022-11-15T16:31:23;8.70;99.90
6118;DHT22;3089;48.202;11.510;2022-11-15T16:33:51;8.60;99.90
6118;DHT22;3089;48.202;11.510;2022-11-15T16:36:21;8.60;99.90
6118;DHT22;3089;48.202;11.510;2022-11-15T16:38:56;8.60;99.90
6118;DHT22;3089;48.202;11.510;2022-11-15T16:41:24;8.60;99.90
6118;DHT22;3089;48.202;11.510;2022-11-15T16:43:52;8.50;99.90